| time (UTC) | temp C | wind direction | speed KPH | gust KPH | rain 1hr cm | rain 24hr cm | rain mn cm | humidity % | barometer mb |
| 20260510175340 | 13 | 256 | 9.7 | 16.1 | 0.00 | 0.03 | 0.03 | 100 | 1016.9 |
| 20260510174343 | 13 | 254 | 9.7 | 14.5 | 0.00 | 0.03 | 0.03 | 100 | 1016.9 |
| 20260510173442 | 13 | 268 | 8.0 | 11.3 | 0.00 | 0.03 | 0.03 | 100 | 1016.9 |
| 20260510172442 | 13 | 249 | 6.4 | 12.9 | 0.00 | 0.03 | 0.03 | 100 | 1016.6 |
| 20260510171443 | 13 | 259 | 9.7 | 12.9 | 0.00 | 0.05 | 0.03 | 100 | 1016.6 |
| 20260510170442 | 13 | 265 | 6.4 | 9.7 | 0.00 | 0.05 | 0.03 | 100 | 1016.5 |
| 20260510165442 | 13 | 270 | 6.4 | 9.7 | 0.00 | 0.08 | 0.03 | 100 | 1016.6 |
| 20260510162542 | 12 | 257 | 11.3 | 16.1 | 0.00 | 0.08 | 0.03 | 100 | 1016.8 |
| 20260510161543 | 12 | 234 | 6.4 | 12.9 | 0.00 | 0.10 | 0.03 | 100 | 1016.8 |
| 20260510160543 | 11 | 253 | 8.0 | 14.5 | 0.00 | 0.10 | 0.03 | 100 | 1016.8 |
| 20260510155642 | 11 | 262 | 11.3 | 19.3 | 0.00 | 0.13 | 0.03 | 100 | 1016.8 |
| 20260510154641 | 11 | 248 | 9.7 | 14.5 | 0.00 | 0.13 | 0.03 | 100 | 1016.8 |
| 20260510153642 | 11 | 253 | 8.0 | 12.9 | 0.00 | 0.13 | 0.03 | 100 | 1016.7 |
| 20260510152642 | 11 | 252 | 6.4 | 9.7 | 0.00 | 0.15 | 0.03 | 100 | 1016.7 |
| 20260510150740 | 11 | 267 | 12.9 | 22.5 | 0.00 | 0.18 | 0.03 | 100 | 1016.3 |
| 20260510145744 | 11 | 261 | 9.7 | 16.1 | 0.03 | 0.20 | 0.03 | 100 | 1016.2 |
| 20260510144841 | 11 | 219 | 8.0 | 14.5 | 0.03 | 0.25 | 0.03 | 100 | 1016.0 |
| 20260510144742 | 11 | 252 | 9.7 | 12.9 | 0.03 | 0.25 | 0.03 | 100 | 1016.0 |
| 20260510143741 | 11 | 265 | 8.0 | 14.5 | 0.03 | 0.28 | 0.03 | 100 | 1015.9 |
| 20260510142741 | 11 | 225 | 9.7 | 17.7 | 0.03 | 0.30 | 0.03 | 100 | 1015.5 |
| 20260510141840 | 11 | 264 | 8.0 | 11.3 | 0.03 | 0.33 | 0.03 | 100 | 1015.6 |
| 20260510140841 | 12 | 262 | 9.7 | 16.1 | 0.03 | 0.36 | 0.03 | 100 | 1015.7 |
| 20260510135940 | 12 | 251 | 4.8 | 8.0 | 0.00 | 0.36 | 0.00 | 100 | 1015.2 |
| 20260510134941 | 12 | 247 | 1.6 | 3.2 | 0.00 | 0.41 | 0.00 | 100 | 1015.1 |
| 20260510134039 | 12 | 263 | 1.6 | 3.2 | 0.00 | 0.43 | 0.00 | 100 | 1014.9 |
| 20260510132040 | 12 | 270 | 1.6 | 4.8 | 0.00 | 0.48 | 0.00 | 100 | 1014.9 |
| 20260510131043 | 12 | 247 | 0.0 | 0.0 | 0.00 | 0.51 | 0.00 | 100 | 1014.7 |
| 20260510125043 | 12 | 247 | 0.0 | 0.0 | 0.00 | 0.51 | 0.00 | 100 | 1014.5 |
| 20260510124042 | 11 | 180 | 0.0 | 1.6 | 0.00 | 0.53 | 0.00 | 100 | 1014.2 |
| 20260510123041 | 11 | 225 | 0.0 | 0.0 | 0.00 | 0.56 | 0.00 | 100 | 1014.2 |
| 20260510122040 | 11 | 225 | 0.0 | 0.0 | 0.00 | 0.56 | 0.00 | 100 | 1014.3 |
| 20260510121042 | 11 | 225 | 0.0 | 0.0 | 0.00 | 0.56 | 0.00 | 100 | 1014.2 |
| 20260510120140 | 11 | 225 | 0.0 | 0.0 | 0.00 | 0.56 | 0.00 | 100 | 1014.3 |
| 20260510115140 | 11 | 180 | 0.0 | 1.6 | 0.00 | 0.58 | 0.00 | 100 | 1014.2 |
| 20260510113241 | 10 | 180 | 0.0 | 0.0 | 0.00 | 0.58 | 0.00 | 100 | 1013.7 |
| 20260510112242 | 10 | 180 | 0.0 | 1.6 | 0.00 | 0.58 | 0.00 | 100 | 1013.8 |
| 20260510110339 | 10 | 180 | 0.0 | 3.2 | 0.00 | 0.58 | 0.00 | 100 | 1013.6 |
| 20260510103340 | 10 | 180 | 3.2 | 4.8 | 0.00 | 0.58 | 0.00 | 100 | 1013.1 |
| 20260510102341 | 10 | 180 | 0.0 | 1.6 | 0.00 | 0.58 | 0.00 | 100 | 1013.0 |
| 20260510101339 | 10 | 180 | 0.0 | 1.6 | 0.00 | 0.58 | 0.00 | 100 | 1012.9 |
| 20260510100342 | 10 | 180 | 1.6 | 4.8 | 0.00 | 0.58 | 0.00 | 100 | 1012.8 |
| 20260510095340 | 10 | 180 | 1.6 | 3.2 | 0.00 | 0.58 | 0.00 | 100 | 1012.6 |
| 20260510094339 | 10 | 180 | 3.2 | 6.4 | 0.00 | 0.58 | 0.00 | 100 | 1012.4 |
| 20260510093341 | 9 | 180 | 3.2 | 4.8 | 0.00 | 0.58 | 0.00 | 100 | 1012.1 |
| 20260510091439 | 9 | 180 | 1.6 | 3.2 | 0.00 | 0.58 | 0.00 | 100 | 1011.9 |
| 20260510090442 | 10 | 180 | 0.0 | 1.6 | 0.00 | 0.58 | 0.00 | 100 | 1012.1 |
| 20260510085539 | 10 | 180 | 0.0 | 0.0 | 0.00 | 0.58 | 0.00 | 100 | 1012.2 |
| 20260510084539 | 10 | 180 | 0.0 | 0.0 | 0.00 | 0.58 | 0.00 | 100 | 1012.0 |
| 20260510083539 | 10 | 180 | 3.2 | 4.8 | 0.00 | 0.58 | 0.00 | 100 | 1011.8 |
| 20260510082540 | 10 | 180 | 1.6 | 3.2 | 0.00 | 0.58 | 0.00 | 100 | 1012.0 |
| 20260510081539 | 10 | 180 | 1.6 | 4.8 | 0.00 | 0.58 | 0.00 | 100 | 1012.0 |
| 20260510080538 | 10 | 180 | 0.0 | 0.0 | 0.00 | 0.58 | 0.00 | 100 | 1012.0 |
| 20260510075540 | 10 | 180 | 0.0 | 0.0 | 0.00 | 0.58 | 0.00 | 100 | 1012.1 |
| 20260510074638 | 10 | 180 | 0.0 | 3.2 | 0.00 | 0.58 | 0.00 | 100 | 1012.2 |
| 20260510073639 | 10 | 180 | 1.6 | 8.0 | 0.00 | 0.58 | 0.00 | 100 | 1011.5 |
| 20260510072738 | 10 | 180 | 0.0 | 0.0 | 0.00 | 0.58 | 0.00 | 100 | 1011.9 |
| 20260510071740 | 10 | 180 | 6.4 | 9.7 | 0.00 | 0.58 | 0.00 | 100 | 1011.5 |
| 20260510070839 | 10 | 180 | 3.2 | 4.8 | 0.00 | 0.58 | 0.00 | 100 | 1011.7 |
| 20260510065837 | 10 | 180 | 0.0 | 1.6 | 0.00 | 0.58 | 0.00 | 100 | 1012.1 |
| 20260510064840 | 10 | 180 | 3.2 | 4.8 | 0.00 | 0.58 | 0.00 | 100 | 1012.5 |
| 20260510062840 | 10 | 180 | 0.0 | 0.0 | 0.00 | 0.58 | 0.00 | 100 | 1012.8 |
| 20260510060940 | 11 | 180 | 0.0 | 0.0 | 0.00 | 0.58 | 0.00 | 100 | 1012.9 |
| 20260510054940 | 11 | 189 | 0.0 | 3.2 | 0.00 | 0.58 | 0.00 | 100 | 1012.9 |
| 20260510054038 | 11 | 180 | 1.6 | 3.2 | 0.00 | 0.58 | 0.00 | 100 | 1012.6 |
| 20260510053041 | 11 | 180 | 1.6 | 1.6 | 0.00 | 0.58 | 0.00 | 100 | 1012.6 |
| 20260510052038 | 11 | 180 | 0.0 | 3.2 | 0.00 | 0.58 | 0.00 | 100 | 1012.4 |
| 20260510051040 | 11 | 180 | 3.2 | 4.8 | 0.00 | 0.58 | 0.00 | 100 | 1012.2 |
| 20260510050040 | 11 | 180 | 0.0 | 3.2 | 0.00 | 0.58 | 0.00 | 100 | 1012.2 |
| 20260510044037 | 11 | 180 | 1.6 | 4.8 | 0.00 | 0.58 | 0.00 | 100 | 1012.2 |
| 20260510043136 | 11 | 180 | 3.2 | 6.4 | 0.00 | 0.58 | 0.00 | 100 | 1012.2 |
| 20260510042138 | 11 | 180 | 1.6 | 3.2 | 0.00 | 0.58 | 0.00 | 100 | 1012.3 |
| 20260510041139 | 11 | 180 | 0.0 | 3.2 | 0.00 | 0.58 | 0.00 | 100 | 1012.3 |
| 20260510040140 | 11 | 355 | 1.6 | 3.2 | 0.00 | 0.58 | 0.00 | 100 | 1012.3 |
| 20260510035147 | 11 | 225 | 1.6 | 3.2 | 0.00 | 0.58 | 0.58 | 100 | 1012.3 |
| 20260510034148 | 11 | 180 | 1.6 | 4.8 | 0.00 | 0.58 | 0.58 | 100 | 1012.1 |
| 20260510033244 | 11 | 180 | 3.2 | 4.8 | 0.00 | 0.58 | 0.58 | 100 | 1012.0 |
| 20260510032248 | 11 | 180 | 3.2 | 6.4 | 0.00 | 0.58 | 0.58 | 100 | 1012.2 |
| 20260510031346 | 11 | 180 | 4.8 | 8.0 | 0.00 | 0.58 | 0.58 | 100 | 1012.1 |
| 20260510030446 | 11 | 188 | 6.4 | 12.9 | 0.00 | 0.58 | 0.58 | 100 | 1011.9 |
| 20260510025446 | 11 | 180 | 4.8 | 9.7 | 0.00 | 0.58 | 0.58 | 100 | 1012.1 |
| 20260510024445 | 11 | 180 | 6.4 | 12.9 | 0.00 | 0.58 | 0.58 | 100 | 1012.1 |
| 20260510022446 | 11 | 180 | 3.2 | 6.4 | 0.00 | 0.58 | 0.58 | 100 | 1012.3 |
| 20260510021444 | 11 | 180 | 1.6 | 3.2 | 0.00 | 0.58 | 0.58 | 100 | 1012.3 |
| 20260510020445 | 11 | 180 | 6.4 | 11.3 | 0.00 | 0.58 | 0.58 | 100 | 1012.1 |
| 20260510015446 | 11 | 192 | 3.2 | 6.4 | 0.00 | 0.58 | 0.58 | 100 | 1012.2 |
| 20260510014446 | 11 | 180 | 6.4 | 8.0 | 0.00 | 0.58 | 0.58 | 100 | 1012.1 |
| 20260510013445 | 11 | 181 | 8.0 | 14.5 | 0.00 | 0.58 | 0.58 | 100 | 1012.3 |
| 20260510012446 | 11 | 188 | 6.4 | 11.3 | 0.00 | 0.58 | 0.58 | 100 | 1012.0 |
| 20260510011545 | 11 | 180 | 6.4 | 11.3 | 0.00 | 0.58 | 0.58 | 100 | 1011.8 |
| 20260510010644 | 11 | 180 | 6.4 | 11.3 | 0.00 | 0.58 | 0.58 | 100 | 1012.1 |
| 20260510005646 | 11 | 180 | 3.2 | 11.3 | 0.00 | 0.58 | 0.58 | 100 | 1012.2 |
| 20260510004744 | 11 | 181 | 4.8 | 9.7 | 0.00 | 0.58 | 0.58 | 100 | 1011.8 |
| 20260510003745 | 11 | 180 | 4.8 | 8.0 | 0.00 | 0.58 | 0.58 | 100 | 1011.9 |
| 20260510002746 | 11 | 180 | 4.8 | 6.4 | 0.00 | 0.58 | 0.58 | 100 | 1012.0 |
| 20260510001844 | 11 | 180 | 4.8 | 6.4 | 0.00 | 0.58 | 0.58 | 100 | 1011.9 |
| 20260510000845 | 11 | 180 | 3.2 | 8.0 | 0.00 | 0.58 | 0.58 | 100 | 1011.8 |
| 20260509234944 | 11 | 180 | 3.2 | 4.8 | 0.00 | 0.58 | 0.58 | 100 | 1011.4 |
| 20260509233944 | 11 | 180 | 3.2 | 6.4 | 0.00 | 0.58 | 0.58 | 100 | 1011.4 |
| 20260509232946 | 11 | 180 | 3.2 | 6.4 | 0.00 | 0.58 | 0.58 | 100 | 1011.4 |
| 20260509232045 | 11 | 180 | 3.2 | 4.8 | 0.00 | 0.58 | 0.58 | 100 | 1011.2 |
| 20260509231045 | 11 | 180 | 1.6 | 4.8 | 0.00 | 0.58 | 0.58 | 100 | 1011.2 |
| 20260509230144 | 11 | 180 | 0.0 | 1.6 | 0.00 | 0.58 | 0.58 | 100 | 1010.9 |
| 20260509224145 | 11 | 180 | 0.0 | 1.6 | 0.00 | 0.58 | 0.58 | 100 | 1011.1 |
| 20260509223145 | 11 | 180 | 1.6 | 6.4 | 0.00 | 0.58 | 0.58 | 100 | 1011.1 |
| 20260509222245 | 11 | 180 | 1.6 | 3.2 | 0.00 | 0.58 | 0.58 | 100 | 1011.0 |
| 20260509222144 | 11 | 180 | 3.2 | 6.4 | 0.00 | 0.58 | 0.58 | 100 | 1011.0 |
| 20260509220244 | 11 | 180 | 0.0 | 0.0 | 0.00 | 0.58 | 0.58 | 100 | 1011.3 |
| 20260509215244 | 11 | 180 | 0.0 | 0.0 | 0.00 | 0.58 | 0.58 | 100 | 1011.4 |
| 20260509212345 | 10 | 180 | 3.2 | 4.8 | 0.00 | 0.58 | 0.58 | 100 | 1011.6 |
| 20260509211345 | 10 | 180 | 6.4 | 8.0 | 0.00 | 0.58 | 0.58 | 100 | 1011.6 |
| 20260509210345 | 10 | 180 | 4.8 | 6.4 | 0.00 | 0.58 | 0.58 | 100 | 1011.7 |
| 20260509205444 | 10 | 180 | 4.8 | 6.4 | 0.00 | 0.58 | 0.58 | 100 | 1011.7 |
| 20260509204445 | 10 | 180 | 3.2 | 6.4 | 0.00 | 0.58 | 0.58 | 100 | 1011.8 |
| 20260509203543 | 10 | 180 | 4.8 | 9.7 | 0.00 | 0.58 | 0.58 | 100 | 1011.9 |
| 20260509202642 | 10 | 180 | 3.2 | 6.4 | 0.00 | 0.58 | 0.58 | 100 | 1012.0 |
| 20260509201646 | 10 | 180 | 3.2 | 6.4 | 0.00 | 0.58 | 0.58 | 100 | 1012.2 |
| 20260509201543 | 10 | 180 | 3.2 | 6.4 | 0.00 | 0.58 | 0.58 | 100 | 1012.2 |
| 20260509200544 | 9 | 180 | 3.2 | 6.4 | 0.00 | 0.58 | 0.58 | 100 | 1012.2 |
| 20260509194545 | 9 | 180 | 4.8 | 11.3 | 0.00 | 0.58 | 0.58 | 100 | 1012.4 |
| 20260509193546 | 9 | 191 | 3.2 | 6.4 | 0.00 | 0.58 | 0.58 | 100 | 1012.5 |
| 20260509192543 | 9 | 190 | 3.2 | 6.4 | 0.00 | 0.58 | 0.58 | 100 | 1012.5 |
| 20260509190543 | 9 | 180 | 6.4 | 11.3 | 0.00 | 0.58 | 0.58 | 100 | 1012.7 |
| 20260509185545 | 9 | 180 | 4.8 | 6.4 | 0.00 | 0.58 | 0.58 | 100 | 1012.8 |
| 20260509184544 | 9 | 180 | 3.2 | 6.4 | 0.00 | 0.58 | 0.58 | 100 | 1012.8 |
| 20260509183545 | 8 | 180 | 4.8 | 11.3 | 0.00 | 0.58 | 0.58 | 100 | 1012.9 |
| 20260509182544 | 8 | 180 | 6.4 | 12.9 | 0.00 | 0.58 | 0.58 | 100 | 1012.6 |
| 20260509181544 | 8 | 182 | 4.8 | 9.7 | 0.03 | 0.58 | 0.58 | 100 | 1012.8 |
| 20260509180544 | 8 | 180 | 4.8 | 8.0 | 0.03 | 0.58 | 0.58 | 100 | 1012.8 |